createdAt,value
2022-09-22T00:01:33.286Z,11.60
2022-09-22T00:04:06.006Z,10.88
2022-09-22T00:06:41.129Z,11.43
2022-09-22T00:09:12.699Z,11.32
2022-09-22T00:11:51.874Z,11.40
2022-09-22T00:14:25.676Z,10.68
2022-09-22T00:17:01.334Z,10.40
2022-09-22T00:19:36.250Z,11.70
2022-09-22T00:22:05.978Z,11.43
2022-09-22T00:24:33.647Z,12.60
2022-09-22T00:27:01.509Z,11.57
2022-09-22T00:29:30.259Z,11.55
2022-09-22T00:32:00.278Z,10.82
2022-09-22T00:34:29.514Z,10.05
2022-09-22T00:36:56.804Z,10.38
2022-09-22T00:39:24.125Z,10.25
2022-09-22T00:41:52.820Z,11.00
2022-09-22T00:44:41.149Z,9.98
2022-09-22T00:47:37.605Z,9.32
2022-09-22T00:50:24.203Z,9.48
2022-09-22T00:53:21.235Z,9.15
2022-09-22T00:56:03.337Z,9.40
2022-09-22T00:58:36.957Z,8.80
2022-09-22T01:01:05.215Z,9.02
2022-09-22T01:03:32.990Z,10.07
2022-09-22T01:06:05.077Z,9.68
2022-09-22T01:08:34.007Z,9.35
2022-09-22T01:11:02.211Z,9.40
2022-09-22T01:13:59.659Z,10.40
2022-09-22T01:17:06.692Z,9.88
2022-09-22T01:20:03.447Z,10.07
2022-09-22T01:23:05.668Z,11.02
2022-09-22T01:26:13.507Z,10.35
2022-09-22T01:29:03.882Z,10.02
2022-09-22T01:31:34.983Z,10.40
2022-09-22T01:34:32.592Z,10.95
2022-09-22T01:37:27.915Z,10.88
2022-09-22T01:40:03.569Z,11.65
2022-09-22T01:42:44.238Z,12.60
2022-09-22T01:45:29.864Z,11.43
2022-09-22T01:48:13.560Z,12.30
2022-09-22T01:51:19.781Z,12.20
2022-09-22T01:54:00.145Z,13.23
2022-09-22T01:56:31.616Z,13.13
2022-09-22T01:59:03.333Z,12.65
2022-09-22T02:02:04.971Z,14.32
2022-09-22T02:04:45.769Z,15.05
2022-09-22T02:07:33.818Z,14.07
2022-09-22T02:10:08.646Z,12.77
2022-09-22T02:12:37.178Z,15.95
2022-09-22T02:15:26.900Z,15.63
2022-09-22T02:18:05.575Z,14.27
2022-09-22T02:20:34.370Z,16.58
2022-09-22T02:23:01.563Z,16.55
2022-09-22T02:25:29.183Z,14.70
2022-09-22T02:27:57.394Z,15.55
2022-09-22T02:30:25.067Z,15.48
2022-09-22T02:32:58.426Z,15.98
2022-09-22T02:35:30.570Z,15.27
2022-09-22T02:38:28.556Z,16.08
2022-09-22T02:41:11.896Z,16.80
2022-09-22T02:43:59.099Z,16.27
2022-09-22T02:46:46.227Z,17.02
2022-09-22T02:49:18.239Z,17.10
2022-09-22T02:51:49.330Z,16.42
2022-09-22T02:54:17.005Z,15.80
2022-09-22T02:56:45.441Z,15.63
2022-09-22T02:59:12.751Z,16.67
2022-09-22T03:01:40.033Z,16.08
2022-09-22T03:04:07.314Z,19.25
2022-09-22T03:06:35.250Z,19.70
2022-09-22T03:09:02.709Z,18.02
2022-09-22T03:11:29.944Z,18.55
2022-09-22T03:13:57.343Z,17.88
2022-09-22T03:16:25.015Z,19.38
2022-09-22T03:18:52.364Z,17.65
2022-09-22T03:21:19.629Z,19.17
2022-09-22T03:23:46.783Z,18.67
2022-09-22T03:26:13.975Z,19.05
2022-09-22T03:28:41.187Z,19.13
2022-09-22T03:31:08.354Z,18.60
2022-09-22T03:33:35.668Z,19.60
2022-09-22T03:36:03.279Z,22.85
2022-09-22T03:38:30.494Z,21.33
2022-09-22T03:40:58.829Z,19.75
2022-09-22T03:43:26.052Z,21.98
2022-09-22T03:45:59.007Z,20.83
2022-09-22T03:48:30.109Z,22.23
2022-09-22T03:50:58.134Z,20.48
2022-09-22T03:53:25.976Z,22.52
2022-09-22T03:55:53.262Z,22.25
2022-09-22T03:58:21.711Z,23.23
2022-09-22T04:00:50.128Z,23.27
2022-09-22T04:03:17.281Z,22.40
2022-09-22T04:05:52.141Z,22.33
2022-09-22T04:08:19.350Z,23.75
2022-09-22T04:10:46.855Z,23.80
2022-09-22T04:13:15.068Z,21.83
2022-09-22T04:15:42.566Z,20.58
2022-09-22T04:18:12.668Z,22.27
2022-09-22T04:20:44.353Z,20.33
2022-09-22T04:23:14.175Z,21.80
2022-09-22T04:25:42.006Z,22.17
2022-09-22T04:28:09.159Z,21.33
2022-09-22T04:30:37.654Z,22.63
2022-09-22T04:33:05.327Z,20.45
2022-09-22T04:35:33.286Z,22.00
2022-09-22T04:38:00.768Z,22.33
2022-09-22T04:40:28.033Z,21.75
2022-09-22T04:42:55.986Z,20.98
2022-09-22T04:45:23.846Z,22.33
2022-09-22T04:47:53.239Z,22.65
2022-09-22T04:50:22.637Z,21.38
2022-09-22T04:52:57.768Z,20.17
2022-09-22T04:55:26.094Z,21.98
2022-09-22T04:57:56.649Z,22.48
2022-09-22T05:00:26.810Z,23.83
2022-09-22T05:02:54.387Z,23.67
2022-09-22T05:05:24.587Z,24.08
2022-09-22T05:07:54.944Z,26.05
2022-09-22T05:10:27.339Z,25.90
2022-09-22T05:12:54.621Z,23.92
2022-09-22T05:15:22.821Z,22.95
2022-09-22T05:17:52.730Z,22.33
2022-09-22T05:20:21.630Z,22.80
2022-09-22T05:22:49.299Z,21.23
2022-09-22T05:25:19.380Z,22.80
2022-09-22T05:27:48.951Z,21.30
2022-09-22T05:30:17.284Z,21.00
2022-09-22T05:32:46.167Z,23.80
2022-09-22T05:35:15.633Z,21.65
2022-09-22T05:37:51.590Z,23.70
2022-09-22T05:40:20.695Z,21.13
2022-09-22T05:42:51.656Z,21.67
2022-09-22T05:45:20.452Z,22.55
2022-09-22T05:47:47.908Z,21.98
2022-09-22T05:50:17.523Z,23.20
2022-09-22T05:52:44.884Z,22.67
2022-09-22T05:55:13.805Z,21.83
2022-09-22T05:57:41.125Z,23.10
2022-09-22T06:00:10.415Z,21.77
2022-09-22T06:02:43.076Z,22.25
2022-09-22T06:05:10.296Z,21.90
2022-09-22T06:07:37.442Z,21.75
2022-09-22T06:10:05.336Z,20.92
2022-09-22T06:12:32.522Z,20.88
2022-09-22T06:14:59.624Z,21.08
2022-09-22T06:17:26.901Z,22.50
2022-09-22T06:19:54.191Z,20.85
2022-09-22T06:22:21.663Z,20.38
2022-09-22T06:24:48.902Z,21.65
2022-09-22T06:27:16.598Z,22.20
2022-09-22T06:29:44.401Z,22.02
2022-09-22T06:32:11.787Z,22.02
2022-09-22T06:34:39.068Z,22.45
2022-09-22T06:37:09.843Z,21.30
2022-09-22T06:42:06.349Z,21.88
2022-09-22T06:44:34.825Z,23.48
2022-09-22T06:47:12.524Z,25.90
2022-09-22T06:49:41.340Z,23.88
2022-09-22T06:52:13.479Z,23.17
2022-09-22T06:54:42.104Z,23.13
2022-09-22T06:57:10.591Z,24.10
2022-09-22T06:59:39.115Z,22.90
2022-09-22T07:02:07.488Z,22.27
2022-09-22T07:04:35.147Z,22.77
2022-09-22T07:07:04.036Z,22.30
2022-09-22T07:09:31.815Z,23.10
2022-09-22T07:12:00.405Z,22.33
2022-09-22T07:14:29.695Z,22.77
2022-09-22T07:16:56.923Z,22.55
2022-09-22T07:19:24.258Z,19.95
2022-09-22T07:21:51.513Z,19.67
2022-09-22T07:24:18.690Z,18.50
2022-09-22T07:26:46.591Z,18.88
2022-09-22T07:29:13.952Z,18.05
2022-09-22T07:31:42.029Z,17.85
2022-09-22T07:34:09.469Z,16.52
2022-09-22T07:36:40.106Z,17.08
2022-09-22T07:39:11.200Z,16.77
2022-09-22T07:41:43.395Z,17.70
2022-09-22T07:44:32.994Z,18.27
2022-09-22T07:47:02.312Z,15.85
2022-09-22T07:49:29.925Z,18.45
2022-09-22T07:51:57.740Z,19.95
2022-09-22T07:54:26.836Z,20.80
2022-09-22T07:56:58.754Z,20.85
2022-09-22T07:59:27.583Z,18.90
2022-09-22T08:01:55.725Z,16.75
2022-09-22T08:04:23.776Z,14.38
2022-09-22T08:06:56.191Z,14.63
2022-09-22T08:09:25.414Z,14.00
2022-09-22T08:11:53.564Z,15.10
2022-09-22T08:14:23.295Z,12.70
2022-09-22T08:16:54.028Z,15.10
2022-09-22T08:19:24.003Z,12.95
2022-09-22T08:21:54.321Z,11.52
2022-09-22T08:26:53.364Z,10.52
2022-09-22T08:29:21.334Z,10.80
2022-09-22T08:31:49.629Z,11.20
2022-09-22T08:34:18.198Z,12.25
2022-09-22T08:36:48.834Z,13.10
2022-09-22T08:42:00.071Z,12.88
2022-09-22T08:44:45.203Z,12.32
2022-09-22T08:47:59.039Z,11.70
2022-09-22T08:50:58.137Z,11.85
2022-09-22T08:53:29.573Z,10.95
2022-09-22T08:56:24.632Z,11.48
2022-09-22T08:59:29.871Z,10.18
2022-09-22T09:02:18.568Z,7.47
2022-09-22T09:05:22.356Z,7.07
2022-09-22T09:08:19.915Z,8.05
2022-09-22T09:10:59.476Z,7.80
2022-09-22T09:13:57.606Z,6.30
2022-09-22T09:16:55.953Z,6.97
2022-09-22T09:19:42.293Z,7.10
2022-09-22T09:22:32.214Z,5.97
2022-09-22T09:25:23.339Z,7.07
2022-09-22T09:28:06.363Z,5.57
2022-09-22T09:30:52.261Z,5.88
2022-09-22T09:33:38.326Z,6.22
2022-09-22T09:36:11.506Z,6.15
2022-09-22T09:38:49.967Z,7.70
2022-09-22T09:41:32.674Z,6.70
2022-09-22T09:44:01.752Z,7.18
2022-09-22T09:46:59.488Z,6.45
2022-09-22T09:49:26.874Z,6.28
2022-09-22T09:52:01.812Z,5.60
2022-09-22T09:54:29.056Z,5.20
2022-09-22T09:57:15.533Z,4.20
2022-09-22T10:00:28.099Z,5.40
2022-09-22T10:03:22.448Z,3.95
2022-09-22T10:06:08.366Z,3.80
2022-09-22T10:08:49.095Z,4.80
2022-09-22T10:11:16.613Z,5.28
2022-09-22T10:13:44.408Z,5.13
2022-09-22T10:16:23.043Z,4.82
2022-09-22T10:19:23.343Z,5.15
2022-09-22T10:21:50.734Z,5.70
2022-09-22T10:24:54.630Z,5.50
2022-09-22T10:27:24.241Z,5.10
2022-09-22T10:30:11.055Z,5.95
2022-09-22T10:32:38.523Z,3.85
2022-09-22T10:35:28.798Z,3.72
2022-09-22T10:38:01.207Z,4.45
2022-09-22T10:40:31.456Z,3.97
2022-09-22T10:43:00.058Z,3.97
2022-09-22T10:46:28.815Z,3.65
2022-09-22T10:49:23.918Z,3.22
2022-09-22T10:52:02.339Z,2.90
2022-09-22T10:55:32.038Z,2.67
2022-09-22T10:58:07.142Z,3.10
2022-09-22T11:00:39.787Z,3.78
2022-09-22T11:04:05.299Z,3.10
2022-09-22T11:07:24.962Z,3.42
2022-09-22T11:10:45.515Z,3.67
2022-09-22T11:16:10.954Z,3.10
2022-09-22T11:19:16.603Z,3.08
2022-09-22T11:22:17.687Z,3.58
2022-09-22T11:25:33.733Z,4.15
2022-09-22T11:28:39.010Z,3.05
2022-09-22T11:31:06.495Z,2.78
2022-09-22T11:33:58.205Z,2.78
2022-09-22T11:37:27.895Z,2.60
2022-09-22T11:41:17.611Z,1.98
2022-09-22T11:44:30.511Z,3.42
2022-09-22T11:47:09.425Z,3.50
2022-09-22T11:50:14.305Z,3.33
2022-09-22T11:53:09.531Z,2.47
2022-09-22T11:56:15.741Z,3.63
2022-09-22T11:58:46.197Z,3.20
2022-09-22T12:04:16.245Z,3.78
2022-09-22T12:06:49.508Z,4.35
2022-09-22T12:09:43.769Z,3.67
2022-09-22T12:12:19.609Z,3.28
2022-09-22T12:15:18.976Z,3.13
2022-09-22T12:17:59.849Z,3.17
2022-09-22T12:20:44.663Z,2.97
2022-09-22T12:23:29.885Z,2.30
2022-09-22T12:26:02.699Z,2.97
2022-09-22T12:28:32.582Z,3.40
2022-09-22T12:31:13.088Z,3.10
2022-09-22T12:33:53.001Z,3.70
2022-09-22T12:36:37.684Z,3.93
2022-09-22T12:39:32.087Z,3.20
2022-09-22T12:42:16.695Z,3.28
2022-09-22T12:44:58.706Z,29.27
2022-09-22T12:47:35.765Z,8.68
2022-09-22T12:50:26.927Z,3.92
2022-09-22T12:52:54.510Z,3.65
2022-09-22T12:55:30.189Z,6.45
2022-09-22T12:57:59.649Z,2.63
2022-09-22T13:00:41.206Z,3.90
2022-09-22T13:03:26.742Z,2.80
2022-09-22T13:06:03.451Z,2.35
2022-09-22T13:08:30.567Z,2.50
2022-09-22T13:11:04.507Z,2.25
2022-09-22T13:13:32.051Z,2.40
2022-09-22T13:16:15.649Z,1.83
2022-09-22T13:18:58.956Z,1.85
2022-09-22T13:21:33.447Z,10.75
2022-09-22T13:24:05.267Z,8.02
2022-09-22T13:26:41.180Z,2.05
2022-09-22T13:29:21.812Z,2.25
2022-09-22T13:31:56.895Z,2.00
2022-09-22T13:34:33.404Z,1.77
2022-09-22T13:37:11.337Z,2.40
2022-09-22T13:39:47.215Z,2.05
2022-09-22T13:42:22.833Z,2.05
2022-09-22T13:45:19.173Z,2.95
2022-09-22T13:47:48.852Z,2.42
2022-09-22T13:50:22.440Z,2.20
2022-09-22T13:52:54.020Z,1.60
2022-09-22T13:55:37.265Z,2.60
2022-09-22T13:58:09.085Z,1.90
2022-09-22T14:01:12.558Z,1.83
2022-09-22T14:03:41.314Z,1.83
2022-09-22T14:06:32.658Z,2.00
2022-09-22T14:09:01.685Z,1.85
2022-09-22T14:11:32.445Z,2.10
2022-09-22T14:14:02.152Z,1.60
2022-09-22T14:16:58.476Z,1.48
2022-09-22T14:19:34.249Z,1.50
2022-09-22T14:22:13.663Z,1.52
2022-09-22T14:24:49.007Z,1.48
2022-09-22T14:27:38.339Z,1.70
2022-09-22T14:30:14.944Z,1.60
2022-09-22T14:32:52.104Z,1.70
2022-09-22T14:35:32.852Z,1.90
2022-09-22T14:38:15.669Z,1.85
2022-09-22T14:40:56.229Z,2.05
2022-09-22T14:43:42.477Z,2.78
2022-09-22T14:46:33.886Z,2.08
2022-09-22T14:49:42.074Z,2.42
2022-09-22T14:52:29.676Z,2.25
2022-09-22T14:55:07.239Z,1.95
2022-09-22T14:57:36.179Z,2.13
2022-09-22T15:00:23.134Z,1.98
2022-09-22T15:02:54.772Z,2.55
2022-09-22T15:05:31.731Z,2.58
2022-09-22T15:08:00.665Z,2.28
2022-09-22T15:10:34.113Z,2.45
2022-09-22T15:13:50.896Z,2.60
2022-09-22T15:16:40.012Z,2.20
2022-09-22T15:19:14.306Z,2.28
2022-09-22T15:21:50.643Z,2.30
2022-09-22T15:24:26.981Z,3.58
2022-09-22T15:26:57.381Z,2.88
2022-09-22T15:29:25.106Z,2.85
2022-09-22T15:31:52.380Z,2.45
2022-09-22T15:34:19.630Z,2.72
2022-09-22T15:36:46.974Z,2.85
2022-09-22T15:39:23.640Z,2.55
2022-09-22T15:41:52.992Z,3.22
2022-09-22T15:44:20.614Z,2.90
2022-09-22T15:46:54.425Z,2.63
2022-09-22T15:49:26.373Z,2.97
2022-09-22T15:51:58.291Z,3.20
2022-09-22T15:54:26.752Z,2.88
2022-09-22T15:56:56.905Z,2.92
2022-09-22T15:59:28.273Z,3.55
2022-09-22T16:01:57.069Z,3.22
2022-09-22T16:04:25.084Z,3.58
2022-09-22T16:07:13.913Z,3.70
2022-09-22T16:09:41.211Z,3.80
2022-09-22T16:12:12.098Z,3.60
2022-09-22T16:14:41.449Z,3.55
2022-09-22T16:17:08.915Z,3.20
2022-09-22T16:19:36.833Z,3.47
2022-09-22T16:22:05.953Z,3.88
2022-09-22T16:24:33.289Z,2.90
2022-09-22T16:27:07.433Z,3.67
2022-09-22T16:29:37.613Z,4.15
2022-09-22T16:32:05.106Z,3.10
2022-09-22T16:34:34.673Z,3.78
2022-09-22T16:37:02.427Z,3.30
2022-09-22T16:39:29.742Z,3.13
2022-09-22T16:41:56.996Z,3.13
2022-09-22T16:44:24.299Z,3.00
2022-09-22T16:46:51.564Z,3.00
2022-09-22T16:49:20.456Z,3.03
2022-09-22T16:51:49.841Z,2.95
2022-09-22T16:54:18.737Z,3.45
2022-09-22T16:56:50.774Z,4.63
2022-09-22T16:59:24.319Z,4.53
2022-09-22T17:01:52.048Z,4.50
2022-09-22T17:04:20.462Z,5.00
2022-09-22T17:06:48.890Z,4.78
2022-09-22T17:09:17.405Z,4.63
2022-09-22T17:11:48.128Z,5.05
2022-09-22T17:16:56.539Z,4.95
2022-09-22T17:19:28.010Z,4.05
2022-09-22T17:21:56.440Z,4.97
2022-09-22T17:24:25.786Z,3.97
2022-09-22T17:26:59.040Z,4.40
2022-09-22T17:29:31.415Z,4.53
2022-09-22T17:32:05.864Z,5.70
2022-09-22T17:34:34.869Z,5.85
2022-09-22T17:37:03.290Z,5.57
2022-09-22T17:39:32.180Z,5.82
2022-09-22T17:41:59.809Z,5.53
2022-09-22T17:44:28.945Z,5.22
2022-09-22T17:47:15.106Z,5.63
2022-09-22T17:50:01.040Z,5.28
2022-09-22T17:52:47.155Z,4.53
2022-09-22T17:55:22.568Z,5.03
2022-09-22T17:57:51.824Z,5.80
2022-09-22T18:00:23.258Z,6.75
2022-09-22T18:02:54.276Z,7.00
2022-09-22T18:05:27.808Z,6.10
2022-09-22T18:07:59.579Z,5.57
2022-09-22T18:10:32.467Z,4.65
2022-09-22T18:13:01.477Z,5.45
2022-09-22T18:15:29.348Z,4.55
2022-09-22T18:17:58.119Z,4.53
2022-09-22T18:20:26.307Z,4.95
2022-09-22T18:22:54.623Z,4.22
2022-09-22T18:25:24.020Z,4.60
2022-09-22T18:27:53.303Z,4.88
2022-09-22T18:30:20.940Z,4.13
2022-09-22T18:32:49.432Z,3.95
2022-09-22T18:35:17.402Z,3.97
2022-09-22T18:37:44.832Z,4.38
2022-09-22T18:40:12.509Z,4.18
2022-09-22T18:42:41.542Z,3.85
2022-09-22T18:45:11.136Z,4.10
2022-09-22T18:47:40.933Z,4.68
2022-09-22T18:50:09.509Z,4.35
2022-09-22T18:52:37.383Z,5.97
2022-09-22T18:55:09.446Z,4.70
2022-09-22T18:57:36.794Z,5.22
2022-09-22T19:00:05.356Z,5.13
2022-09-22T19:02:32.796Z,4.53
2022-09-22T19:05:00.317Z,4.95
2022-09-22T19:07:44.065Z,4.93
2022-09-22T19:10:22.496Z,5.60
2022-09-22T19:12:50.268Z,4.50
2022-09-22T19:15:19.390Z,5.00
2022-09-22T19:17:49.542Z,5.32
2022-09-22T19:20:24.035Z,4.85
2022-09-22T19:22:52.646Z,4.10
2022-09-22T19:25:21.858Z,5.15
2022-09-22T19:27:52.552Z,5.95
2022-09-22T19:30:23.397Z,5.75
2022-09-22T19:32:53.313Z,4.75
2022-09-22T19:35:22.311Z,7.75
2022-09-22T19:37:52.017Z,5.68
2022-09-22T19:40:24.445Z,5.37
2022-09-22T19:42:53.752Z,7.22
2022-09-22T19:45:22.349Z,5.47
2022-09-22T19:47:49.933Z,5.45
2022-09-22T19:50:18.080Z,5.05
2022-09-22T19:52:45.341Z,5.55
2022-09-22T19:55:12.705Z,5.65
2022-09-22T19:57:43.411Z,4.63
2022-09-22T20:02:45.729Z,4.75
2022-09-22T20:05:21.930Z,4.60
2022-09-22T20:07:49.756Z,4.55
2022-09-22T20:10:19.318Z,4.97
2022-09-22T20:12:46.687Z,4.50
2022-09-22T20:15:15.258Z,4.25
2022-09-22T20:17:46.340Z,5.00
2022-09-22T20:20:19.804Z,4.13
2022-09-22T20:23:00.102Z,4.40
2022-09-22T20:25:30.939Z,4.78
2022-09-22T20:27:59.112Z,4.38
2022-09-22T20:30:27.623Z,4.70
2022-09-22T20:32:55.167Z,4.35
2022-09-22T20:35:22.434Z,4.88
2022-09-22T20:37:51.595Z,6.03
2022-09-22T20:40:21.667Z,8.55
2022-09-22T20:42:50.866Z,9.50
2022-09-22T20:45:20.884Z,10.60
2022-09-22T20:47:48.250Z,8.88
2022-09-22T20:50:15.885Z,8.55
2022-09-22T20:52:43.269Z,6.88
2022-09-22T20:55:11.787Z,6.10
2022-09-22T20:57:40.261Z,6.60
2022-09-22T21:00:08.486Z,5.13
2022-09-22T21:02:35.835Z,5.30
2022-09-22T21:05:03.390Z,5.47
2022-09-22T21:07:32.502Z,6.05
2022-09-22T21:10:18.150Z,5.68
2022-09-22T21:12:45.530Z,5.07
2022-09-22T21:15:13.281Z,4.93
2022-09-22T21:17:43.984Z,4.68
2022-09-22T21:20:11.528Z,5.25
2022-09-22T21:22:38.728Z,4.93
2022-09-22T21:25:06.530Z,5.28
2022-09-22T21:27:33.724Z,4.80
2022-09-22T21:30:01.169Z,4.88
2022-09-22T21:32:28.371Z,4.80
2022-09-22T21:34:57.481Z,4.85
2022-09-22T21:37:25.041Z,4.80
2022-09-22T21:39:52.332Z,5.07
2022-09-22T21:42:20.093Z,4.82
2022-09-22T21:44:48.705Z,5.30
2022-09-22T21:47:15.925Z,4.70
2022-09-22T21:49:43.192Z,4.70
2022-09-22T21:52:10.384Z,4.78
2022-09-22T21:54:37.672Z,4.85
2022-09-22T21:57:05.141Z,5.00
2022-09-22T21:59:32.379Z,4.88
2022-09-22T22:02:00.229Z,4.50
2022-09-22T22:04:27.730Z,4.38
2022-09-22T22:06:55.081Z,4.85
2022-09-22T22:09:24.178Z,5.50
2022-09-22T22:11:58.940Z,4.97
2022-09-22T22:14:32.060Z,4.10
2022-09-22T22:17:01.226Z,4.57
2022-09-22T22:19:28.507Z,4.40
2022-09-22T22:21:55.864Z,4.80
2022-09-22T22:24:41.165Z,4.80
2022-09-22T22:27:10.816Z,4.72
2022-09-22T22:29:39.021Z,4.40
2022-09-22T22:32:09.248Z,4.63
2022-09-22T22:34:37.674Z,4.43
2022-09-22T22:37:08.870Z,4.43
2022-09-22T22:39:36.174Z,4.28
2022-09-22T22:42:04.475Z,4.13
2022-09-22T22:44:31.673Z,4.25
2022-09-22T22:46:58.845Z,4.93
2022-09-22T22:49:27.200Z,5.53
2022-09-22T22:51:54.377Z,5.43
2022-09-22T22:54:21.567Z,6.70
2022-09-22T22:56:51.223Z,5.85
2022-09-22T22:59:19.424Z,5.35
2022-09-22T23:01:46.795Z,6.53
2022-09-22T23:04:14.197Z,4.93
2022-09-22T23:06:45.204Z,5.30
2022-09-22T23:09:16.832Z,7.07
2022-09-22T23:11:46.412Z,6.40
2022-09-22T23:14:16.338Z,6.88
2022-09-22T23:16:46.600Z,7.28
2022-09-22T23:19:17.646Z,7.72
2022-09-22T23:24:19.223Z,7.03
2022-09-22T23:26:47.165Z,7.43
2022-09-22T23:29:14.666Z,7.80
2022-09-22T23:31:42.220Z,8.25
2022-09-22T23:34:09.421Z,8.10
2022-09-22T23:36:36.701Z,8.40
2022-09-22T23:39:04.781Z,8.35
2022-09-22T23:41:35.238Z,7.63
2022-09-22T23:44:03.352Z,8.60
2022-09-22T23:46:31.763Z,9.07
2022-09-22T23:49:00.226Z,8.63
2022-09-22T23:51:28.230Z,7.65
2022-09-22T23:53:56.275Z,8.27
2022-09-22T23:56:24.368Z,7.88
2022-09-22T23:58:52.124Z,6.95
